createdAt,value
2019-03-28T00:02:15.234Z,11.33
2019-03-28T00:04:45.314Z,7.80
2019-03-28T00:07:15.414Z,8.28
2019-03-28T00:09:47.514Z,7.17
2019-03-28T00:12:17.594Z,9.33
2019-03-28T00:14:47.658Z,7.25
2019-03-28T00:17:17.810Z,7.75
2019-03-28T00:19:47.898Z,8.25
2019-03-28T00:22:32.390Z,7.60
2019-03-28T00:25:08.524Z,8.30
2019-03-28T00:27:38.612Z,7.20
2019-03-28T00:30:08.991Z,8.75
2019-03-28T00:32:39.089Z,7.78
2019-03-28T00:35:11.402Z,7.50
2019-03-28T00:37:46.078Z,8.70
2019-03-28T00:40:18.083Z,8.95
2019-03-28T00:42:48.190Z,8.13
2019-03-28T00:45:20.266Z,7.58
2019-03-28T00:47:52.324Z,14.15
2019-03-28T00:50:23.387Z,9.60
2019-03-28T00:52:54.588Z,6.05
2019-03-28T00:55:25.634Z,9.23
2019-03-28T00:57:55.707Z,10.82
2019-03-28T01:00:25.999Z,5.80
2019-03-28T01:02:56.083Z,7.58
2019-03-28T01:05:26.171Z,5.58
2019-03-28T01:07:56.310Z,6.70
2019-03-28T01:10:33.143Z,6.08
2019-03-28T01:13:03.214Z,6.67
2019-03-28T01:15:33.325Z,4.20
2019-03-28T01:18:03.416Z,4.67
2019-03-28T01:20:36.200Z,5.25
2019-03-28T01:23:06.267Z,6.97
2019-03-28T01:25:38.386Z,9.58
2019-03-28T01:28:10.423Z,8.28
2019-03-28T01:30:40.564Z,7.55
2019-03-28T01:33:20.470Z,7.17
2019-03-28T01:35:53.750Z,9.13
2019-03-28T01:38:24.410Z,6.08
2019-03-28T01:40:56.454Z,9.00
2019-03-28T01:43:33.642Z,13.15
2019-03-28T01:46:13.598Z,8.23
2019-03-28T01:48:46.330Z,9.38
2019-03-28T01:51:22.236Z,8.75
2019-03-28T01:53:57.250Z,8.03
2019-03-28T01:56:28.334Z,7.22
2019-03-28T01:58:58.418Z,8.13
2019-03-28T02:01:30.114Z,8.55
2019-03-28T02:04:03.374Z,9.70
2019-03-28T02:06:35.422Z,8.55
2019-03-28T02:09:07.042Z,9.90
2019-03-28T02:11:39.030Z,6.60
2019-03-28T02:14:16.079Z,6.95
2019-03-28T02:16:46.221Z,8.20
2019-03-28T02:19:19.272Z,10.18
2019-03-28T02:21:50.374Z,10.25
2019-03-28T02:24:22.248Z,7.00
2019-03-28T02:26:52.346Z,7.83
2019-03-28T02:29:23.438Z,8.08
2019-03-28T02:31:53.522Z,10.55
2019-03-28T02:34:25.640Z,8.10
2019-03-28T02:36:55.763Z,8.40
2019-03-28T02:39:32.015Z,12.75
2019-03-28T02:42:04.028Z,8.70
2019-03-28T02:44:34.100Z,8.08
2019-03-28T02:47:10.421Z,7.83
2019-03-28T02:49:46.448Z,9.98
2019-03-28T02:52:16.546Z,12.03
2019-03-28T02:54:52.462Z,8.80
2019-03-28T02:57:22.515Z,6.95
2019-03-28T03:00:02.492Z,8.05
2019-03-28T03:02:32.694Z,9.53
2019-03-28T03:05:08.226Z,7.58
2019-03-28T03:07:45.121Z,11.20
2019-03-28T03:10:15.280Z,9.78
2019-03-28T03:12:46.311Z,7.00
2019-03-28T03:15:17.438Z,6.95
2019-03-28T03:17:47.495Z,8.00
2019-03-28T03:20:17.757Z,8.95
2019-03-28T03:22:54.519Z,5.87
2019-03-28T03:25:28.706Z,7.30
2019-03-28T03:27:59.390Z,7.85
2019-03-28T03:30:31.429Z,7.17
2019-03-28T03:33:12.469Z,5.85
2019-03-28T03:35:48.335Z,10.18
2019-03-28T03:38:18.408Z,8.20
2019-03-28T03:40:49.525Z,7.30
2019-03-28T03:43:23.150Z,10.88
2019-03-28T03:46:01.637Z,10.38
2019-03-28T03:48:31.936Z,6.65
2019-03-28T03:51:02.011Z,8.45
2019-03-28T03:53:35.024Z,8.55
2019-03-28T03:56:05.099Z,9.58
2019-03-28T03:58:35.182Z,9.38
2019-03-28T04:01:05.307Z,5.87
2019-03-28T04:03:35.387Z,6.08
2019-03-28T04:06:05.466Z,7.50
2019-03-28T04:08:35.548Z,7.72
2019-03-28T04:11:05.619Z,5.70
2019-03-28T04:13:36.491Z,8.50
2019-03-28T04:16:07.591Z,6.05
2019-03-28T04:18:37.682Z,6.78
2019-03-28T04:21:07.752Z,8.35
2019-03-28T04:23:37.818Z,7.90
2019-03-28T04:26:07.899Z,5.92
2019-03-28T04:28:38.972Z,6.20
2019-03-28T04:31:09.330Z,6.22
2019-03-28T04:33:45.424Z,6.78
2019-03-28T04:36:17.480Z,6.20
2019-03-28T04:38:54.477Z,7.50
2019-03-28T04:41:25.508Z,7.10
2019-03-28T04:44:00.509Z,7.08
2019-03-28T04:46:36.703Z,6.58
2019-03-28T04:49:07.731Z,5.70
2019-03-28T04:51:37.790Z,8.03
2019-03-28T04:54:09.953Z,5.17
2019-03-28T04:56:40.348Z,7.70
2019-03-28T04:59:16.114Z,6.08
2019-03-28T05:02:00.870Z,7.28
2019-03-28T05:04:36.411Z,7.45
2019-03-28T05:07:08.479Z,6.65
2019-03-28T05:09:44.666Z,6.10
2019-03-28T05:12:14.743Z,6.90
2019-03-28T05:14:44.915Z,6.00
2019-03-28T05:17:14.995Z,9.15
2019-03-28T05:19:45.067Z,8.25
2019-03-28T05:22:18.207Z,8.20
2019-03-28T05:24:53.311Z,6.30
2019-03-28T05:27:25.407Z,9.15
2019-03-28T05:29:55.480Z,7.95
2019-03-28T05:32:27.571Z,8.68
2019-03-28T05:34:57.647Z,9.75
2019-03-28T05:37:29.637Z,9.23
2019-03-28T05:39:59.707Z,6.22
2019-03-28T05:42:29.954Z,7.75
2019-03-28T05:45:01.976Z,11.18
2019-03-28T05:47:32.987Z,8.05
2019-03-28T05:50:03.059Z,11.88
2019-03-28T05:52:33.175Z,9.33
2019-03-28T05:55:09.147Z,8.03
2019-03-28T05:57:45.258Z,9.05
2019-03-28T06:00:15.521Z,12.88
2019-03-28T06:02:45.615Z,12.80
2019-03-28T06:05:15.707Z,8.60
2019-03-28T06:07:45.843Z,8.60
2019-03-28T06:10:16.600Z,9.13
2019-03-28T06:12:49.935Z,8.70
2019-03-28T06:15:23.331Z,8.00
2019-03-28T06:17:54.599Z,9.80
2019-03-28T06:20:24.685Z,10.03
2019-03-28T06:22:54.759Z,8.25
2019-03-28T06:25:24.843Z,12.43
2019-03-28T06:27:57.619Z,6.70
2019-03-28T06:30:27.715Z,12.28
2019-03-28T06:33:05.860Z,9.30
2019-03-28T06:35:36.065Z,12.80
2019-03-28T06:38:06.143Z,9.88
2019-03-28T06:40:36.252Z,7.58
2019-03-28T06:43:06.308Z,8.10
2019-03-28T06:45:36.564Z,8.78
2019-03-28T06:48:12.499Z,10.48
2019-03-28T06:50:43.531Z,9.13
2019-03-28T06:53:13.650Z,11.57
2019-03-28T06:55:43.727Z,10.03
2019-03-28T06:58:18.692Z,13.98
2019-03-28T07:00:48.791Z,7.20
2019-03-28T07:03:19.848Z,12.23
2019-03-28T07:05:51.914Z,8.65
2019-03-28T07:08:26.690Z,7.90
2019-03-28T07:10:58.218Z,10.30
2019-03-28T07:13:28.542Z,7.20
2019-03-28T07:15:58.714Z,7.43
2019-03-28T07:18:28.796Z,12.40
2019-03-28T07:20:58.898Z,13.70
2019-03-28T07:23:29.035Z,10.73
2019-03-28T07:25:59.246Z,14.00
2019-03-28T07:28:29.363Z,8.70
2019-03-28T07:31:03.127Z,11.80
2019-03-28T07:33:33.262Z,12.87
2019-03-28T07:36:09.251Z,10.57
2019-03-28T07:38:39.354Z,7.50
2019-03-28T07:41:12.446Z,8.30
2019-03-28T07:43:42.552Z,13.63
2019-03-28T07:46:15.636Z,6.80
2019-03-28T07:48:46.299Z,10.20
2019-03-28T07:51:17.447Z,7.03
2019-03-28T07:53:47.649Z,7.20
2019-03-28T07:56:23.315Z,7.17
2019-03-28T07:58:54.344Z,8.37
2019-03-28T08:01:24.462Z,8.60
2019-03-28T08:03:56.508Z,8.20
2019-03-28T08:06:26.720Z,6.23
2019-03-28T08:08:58.768Z,7.10
2019-03-28T08:11:32.428Z,6.43
2019-03-28T08:14:04.430Z,11.97
2019-03-28T08:16:43.510Z,6.97
2019-03-28T08:19:13.618Z,5.87
2019-03-28T08:21:43.722Z,7.60
2019-03-28T08:24:13.802Z,7.53
2019-03-28T08:26:44.816Z,7.43
2019-03-28T08:29:15.822Z,6.27
2019-03-28T08:31:47.714Z,10.60
2019-03-28T08:34:18.611Z,8.13
2019-03-28T08:36:50.779Z,6.43
2019-03-28T08:39:22.870Z,13.00
2019-03-28T08:41:52.951Z,8.20
2019-03-28T08:44:23.072Z,9.33
2019-03-28T08:46:55.156Z,10.23
2019-03-28T08:49:27.154Z,7.10
2019-03-28T08:51:57.250Z,8.70
2019-03-28T08:54:27.403Z,11.07
2019-03-28T08:56:58.383Z,9.53
2019-03-28T08:59:29.398Z,9.30
2019-03-28T09:02:00.360Z,10.37
2019-03-28T09:04:31.362Z,6.47
2019-03-28T09:07:01.300Z,9.67
2019-03-28T09:09:31.407Z,6.50
2019-03-28T09:12:01.501Z,10.70
2019-03-28T09:14:32.080Z,11.20
2019-03-28T09:17:23.940Z,8.33
2019-03-28T09:19:54.046Z,9.00
2019-03-28T09:22:24.174Z,9.77
2019-03-28T09:24:54.278Z,7.30
2019-03-28T09:27:24.350Z,10.10
2019-03-28T09:29:54.464Z,10.53
2019-03-28T09:32:27.424Z,8.13
2019-03-28T09:34:58.608Z,8.10
2019-03-28T09:37:28.685Z,11.73
2019-03-28T09:39:58.793Z,8.00
2019-03-28T09:42:31.922Z,11.33
2019-03-28T09:45:02.050Z,10.60
2019-03-28T09:47:32.154Z,6.20
2019-03-28T09:50:03.820Z,7.07
2019-03-28T09:52:33.887Z,10.20
2019-03-28T09:55:06.414Z,6.97
2019-03-28T09:57:37.382Z,9.17
2019-03-28T10:00:11.423Z,7.80
2019-03-28T10:02:44.092Z,7.70
2019-03-28T10:05:13.679Z,6.77
2019-03-28T10:07:43.770Z,5.43
2019-03-28T10:10:19.676Z,7.83
2019-03-28T10:12:49.775Z,6.17
2019-03-28T10:15:20.076Z,6.83
2019-03-28T10:17:50.166Z,5.30
2019-03-28T10:20:20.264Z,6.80
2019-03-28T10:22:52.307Z,5.87
2019-03-28T10:25:22.384Z,7.13
2019-03-28T10:27:53.363Z,6.40
2019-03-28T10:30:40.370Z,6.80
2019-03-28T10:33:10.594Z,8.27
2019-03-28T10:35:40.855Z,6.63
2019-03-28T10:38:12.066Z,6.20
2019-03-28T10:40:42.167Z,6.10
2019-03-28T10:43:12.272Z,4.43
2019-03-28T10:45:42.365Z,7.40
2019-03-28T10:48:14.000Z,6.97
2019-03-28T10:50:46.031Z,6.40
2019-03-28T10:53:16.268Z,3.93
2019-03-28T10:55:46.370Z,4.53
2019-03-28T10:58:19.180Z,3.67
2019-03-28T11:00:48.270Z,4.40
2019-03-28T11:03:18.375Z,3.80
2019-03-28T11:05:48.479Z,3.47
2019-03-28T11:08:18.571Z,3.00
2019-03-28T11:10:48.699Z,3.80
2019-03-28T11:13:18.780Z,5.20
2019-03-28T11:15:50.855Z,2.97
2019-03-28T11:18:22.854Z,2.87
2019-03-28T11:20:52.939Z,3.57
2019-03-28T11:23:23.036Z,4.37
2019-03-28T11:25:53.137Z,3.80
2019-03-28T11:28:24.283Z,2.47
2019-03-28T11:30:54.363Z,2.40
2019-03-28T11:33:31.321Z,2.20
2019-03-28T11:36:02.307Z,2.87
2019-03-28T11:38:39.267Z,2.37
2019-03-28T11:41:11.323Z,2.60
2019-03-28T11:43:44.343Z,2.33
2019-03-28T11:46:14.439Z,2.60
2019-03-28T11:48:44.515Z,2.77
2019-03-28T11:51:17.679Z,2.67
2019-03-28T11:53:47.763Z,1.80
2019-03-28T11:56:19.754Z,2.80
2019-03-28T11:58:55.582Z,2.10
2019-03-28T12:01:25.664Z,1.63
2019-03-28T12:03:58.823Z,1.90
2019-03-28T12:06:28.907Z,2.50
2019-03-28T12:08:58.988Z,1.63
2019-03-28T12:11:32.326Z,1.70
2019-03-28T12:14:02.404Z,2.07
2019-03-28T12:16:39.951Z,2.23
2019-03-28T12:19:10.055Z,3.57
2019-03-28T12:21:40.160Z,3.63
2019-03-28T12:24:16.966Z,2.50
2019-03-28T12:26:47.066Z,2.70
2019-03-28T12:29:23.906Z,3.93
2019-03-28T12:31:54.159Z,3.87
2019-03-28T12:34:28.407Z,3.53
2019-03-28T12:36:59.394Z,2.43
2019-03-28T12:39:31.367Z,4.70
2019-03-28T12:42:01.456Z,3.30
2019-03-28T12:44:31.551Z,3.20
2019-03-28T12:47:01.663Z,4.60
2019-03-28T12:49:31.862Z,2.63
2019-03-28T12:52:06.611Z,2.70
2019-03-28T12:54:36.728Z,2.27
2019-03-28T12:57:08.747Z,2.53
2019-03-28T12:59:42.027Z,4.63
2019-03-28T13:02:29.888Z,3.07
2019-03-28T13:04:53.156Z,2.23
2019-03-28T13:07:23.234Z,3.00
2019-03-28T13:09:54.315Z,4.30
2019-03-28T13:12:26.352Z,3.10
2019-03-28T13:15:09.365Z,2.10
2019-03-28T13:17:41.413Z,2.63
2019-03-28T13:20:11.919Z,1.90
2019-03-28T13:22:42.475Z,1.57
2019-03-28T13:25:12.555Z,1.83
2019-03-28T13:27:42.753Z,1.70
2019-03-28T13:30:20.375Z,2.90
2019-03-28T13:32:50.506Z,1.90
2019-03-28T13:35:23.847Z,2.17
2019-03-28T13:37:54.939Z,3.47
2019-03-28T13:40:26.156Z,2.90
2019-03-28T13:43:09.275Z,2.17
2019-03-28T13:45:51.435Z,2.50
2019-03-28T13:48:22.423Z,1.70
2019-03-28T13:50:54.794Z,2.50
2019-03-28T13:53:39.577Z,2.47
2019-03-28T13:56:02.715Z,1.93
2019-03-28T13:58:43.451Z,2.73
2019-03-28T14:01:14.427Z,3.57
2019-03-28T14:03:44.519Z,4.77
2019-03-28T14:06:15.284Z,3.07
2019-03-28T14:08:45.407Z,3.10
2019-03-28T14:11:15.543Z,2.87
2019-03-28T14:13:47.818Z,3.63
2019-03-28T14:16:17.907Z,3.30
2019-03-28T14:18:48.882Z,3.50
2019-03-28T14:21:21.999Z,10.00
2019-03-28T14:24:00.966Z,12.80
2019-03-28T14:26:41.158Z,3.70
2019-03-28T14:29:11.271Z,4.40
2019-03-28T14:31:41.426Z,4.47
2019-03-28T14:34:12.466Z,4.87
2019-03-28T14:36:42.544Z,3.90
2019-03-28T14:39:12.703Z,3.40
2019-03-28T14:41:46.253Z,3.20
2019-03-28T14:44:15.843Z,2.50
2019-03-28T14:46:45.955Z,2.40
2019-03-28T14:49:16.135Z,2.93
2019-03-28T14:51:51.871Z,2.90
2019-03-28T14:54:22.389Z,4.27
2019-03-28T14:56:55.422Z,12.83
2019-03-28T14:59:32.566Z,2.47
2019-03-28T15:01:57.610Z,2.70
2019-03-28T15:04:35.477Z,3.10
2019-03-28T15:07:07.291Z,2.90
2019-03-28T15:09:37.337Z,2.63
2019-03-28T15:12:07.430Z,3.03
2019-03-28T15:14:37.518Z,2.33
2019-03-28T15:17:07.699Z,3.13
2019-03-28T15:19:39.012Z,7.97
2019-03-28T15:22:09.094Z,3.97
2019-03-28T15:24:40.074Z,3.83
2019-03-28T15:27:10.170Z,2.13
2019-03-28T15:29:41.210Z,2.57
2019-03-28T15:32:11.311Z,2.73
2019-03-28T15:34:41.390Z,2.60
2019-03-28T15:37:11.542Z,3.10
2019-03-28T15:39:41.665Z,2.63
2019-03-28T15:42:12.642Z,2.70
2019-03-28T15:44:42.747Z,2.97
2019-03-28T15:47:12.914Z,2.53
2019-03-28T15:49:43.010Z,4.93
2019-03-28T15:52:16.531Z,2.50
2019-03-28T15:54:52.432Z,2.90
2019-03-28T15:57:22.521Z,3.00
2019-03-28T15:59:53.598Z,4.30
2019-03-28T16:02:41.636Z,3.10
2019-03-28T16:05:11.780Z,3.43
2019-03-28T16:07:41.958Z,2.73
2019-03-28T16:10:14.939Z,6.37
2019-03-28T16:12:45.348Z,3.23
2019-03-28T16:15:16.294Z,2.83
2019-03-28T16:17:47.644Z,3.30
2019-03-28T16:20:20.850Z,3.40
2019-03-28T16:22:51.836Z,3.07
2019-03-28T16:25:22.847Z,2.73
2019-03-28T16:27:58.710Z,4.37
2019-03-28T16:30:37.622Z,3.67
2019-03-28T16:33:09.089Z,3.73
2019-03-28T16:35:39.185Z,3.37
2019-03-28T16:38:09.303Z,3.30
2019-03-28T16:40:52.367Z,3.37
2019-03-28T16:43:26.989Z,3.60
2019-03-28T16:46:07.836Z,4.90
2019-03-28T16:48:38.066Z,3.30
2019-03-28T16:51:08.158Z,4.87
2019-03-28T16:53:39.208Z,4.90
2019-03-28T16:56:09.519Z,4.03
2019-03-28T16:58:39.606Z,3.70
2019-03-28T17:01:10.643Z,4.50
2019-03-28T17:03:41.627Z,3.93
2019-03-28T17:06:11.783Z,2.90
2019-03-28T17:08:44.394Z,3.83
2019-03-28T17:11:16.639Z,4.13
2019-03-28T17:13:47.755Z,4.77
2019-03-28T17:16:19.944Z,3.80
2019-03-28T17:18:50.039Z,6.30
2019-03-28T17:21:25.027Z,5.57
2019-03-28T17:24:17.315Z,3.67
2019-03-28T17:26:56.994Z,4.30
2019-03-28T17:29:29.136Z,4.13
2019-03-28T17:32:00.231Z,4.40
2019-03-28T17:34:35.236Z,5.30
2019-03-28T17:37:03.360Z,5.30
2019-03-28T17:39:33.459Z,4.23
2019-03-28T17:42:06.092Z,3.90
2019-03-28T17:44:35.335Z,4.40
2019-03-28T17:47:05.479Z,4.43
2019-03-28T17:49:35.671Z,5.33
2019-03-28T17:52:05.769Z,4.30
2019-03-28T17:54:35.887Z,4.77
2019-03-28T17:57:05.984Z,7.00
2019-03-28T17:59:45.196Z,6.50
2019-03-28T18:02:13.973Z,4.67
2019-03-28T18:04:48.095Z,4.57
2019-03-28T18:07:21.579Z,4.03
2019-03-28T18:09:51.671Z,4.80
2019-03-28T18:12:23.724Z,5.47
2019-03-28T18:14:56.771Z,6.60
2019-03-28T18:17:26.855Z,6.67
2019-03-28T18:19:58.906Z,13.10
2019-03-28T18:22:28.995Z,9.47
2019-03-28T18:24:59.087Z,9.03
2019-03-28T18:27:30.080Z,9.07
2019-03-28T18:30:00.240Z,6.37
2019-03-28T18:32:30.411Z,9.43
2019-03-28T18:35:08.489Z,7.50
2019-03-28T18:37:39.633Z,6.40
2019-03-28T18:40:10.751Z,5.37
2019-03-28T18:42:40.820Z,5.73
2019-03-28T18:45:12.775Z,5.83
2019-03-28T18:47:49.621Z,5.70
2019-03-28T18:50:20.836Z,5.40
2019-03-28T18:52:51.827Z,5.43
2019-03-28T18:55:22.017Z,5.20
2019-03-28T18:57:57.973Z,6.40
2019-03-28T19:00:35.046Z,5.57
2019-03-28T19:03:10.904Z,5.80
2019-03-28T19:05:40.998Z,5.23
2019-03-28T19:08:17.635Z,5.47
2019-03-28T19:10:50.688Z,4.70
2019-03-28T19:13:20.515Z,5.10
2019-03-28T19:15:59.567Z,4.37
2019-03-28T19:18:29.759Z,4.87
2019-03-28T19:20:59.839Z,4.57
2019-03-28T19:23:29.936Z,6.43
2019-03-28T19:26:06.155Z,5.90
2019-03-28T19:28:38.931Z,6.57
2019-03-28T19:31:14.772Z,7.50
2019-03-28T19:33:50.575Z,6.17
2019-03-28T19:36:30.763Z,5.33
2019-03-28T19:39:04.127Z,6.33
2019-03-28T19:41:37.379Z,5.80
2019-03-28T19:44:09.258Z,6.85
2019-03-28T19:46:41.211Z,5.42
2019-03-28T19:49:11.317Z,6.37
2019-03-28T19:51:41.387Z,8.20
2019-03-28T19:54:24.920Z,11.03
2019-03-28T19:56:57.377Z,9.95
2019-03-28T19:59:29.462Z,10.88
2019-03-28T20:02:00.111Z,9.95
2019-03-28T20:04:31.092Z,7.95
2019-03-28T20:07:03.099Z,6.03
2019-03-28T20:09:33.175Z,5.22
2019-03-28T20:12:05.378Z,6.20
2019-03-28T20:14:36.686Z,7.50
2019-03-28T20:17:08.750Z,6.08
2019-03-28T20:19:44.966Z,9.70
2019-03-28T20:22:15.042Z,7.80
2019-03-28T20:24:45.151Z,7.53
2019-03-28T20:27:18.159Z,10.93
2019-03-28T20:29:48.256Z,8.03
2019-03-28T20:32:19.424Z,8.33
2019-03-28T20:34:50.556Z,9.63
2019-03-28T20:37:20.634Z,8.68
2019-03-28T20:39:53.710Z,11.28
2019-03-28T20:42:23.982Z,8.68
2019-03-28T20:44:54.043Z,7.72
2019-03-28T20:47:24.767Z,9.53
2019-03-28T20:49:54.915Z,12.95
2019-03-28T20:52:28.167Z,8.35
2019-03-28T20:54:59.022Z,7.28
2019-03-28T20:57:40.344Z,9.60
2019-03-28T21:00:12.932Z,8.80
2019-03-28T21:02:44.186Z,8.45
2019-03-28T21:05:14.867Z,8.83
2019-03-28T21:07:45.031Z,7.30
2019-03-28T21:10:25.961Z,7.33
2019-03-28T21:13:15.709Z,6.70
2019-03-28T21:15:54.547Z,8.33
2019-03-28T21:18:56.665Z,7.17
2019-03-28T21:21:32.370Z,7.65
2019-03-28T21:24:05.576Z,6.42
2019-03-28T21:26:41.113Z,6.35
2019-03-28T21:29:19.267Z,7.85
2019-03-28T21:31:51.973Z,6.60
2019-03-28T21:34:29.891Z,4.90
2019-03-28T21:37:00.066Z,5.70
2019-03-28T21:39:32.076Z,7.97
2019-03-28T21:42:02.155Z,7.58
2019-03-28T21:44:33.083Z,7.65
2019-03-28T21:47:03.143Z,7.80
2019-03-28T21:49:33.214Z,8.98
2019-03-28T21:52:03.314Z,7.53
2019-03-28T21:54:33.568Z,8.70
2019-03-28T21:57:03.663Z,10.15
2019-03-28T21:59:33.795Z,11.95
2019-03-28T22:02:03.905Z,12.05
2019-03-28T22:04:35.856Z,12.25
2019-03-28T22:07:05.974Z,17.98
2019-03-28T22:09:39.770Z,16.65
2019-03-28T22:12:11.354Z,18.82
2019-03-28T22:14:41.488Z,14.93
2019-03-28T22:17:11.615Z,18.98
2019-03-28T22:19:41.753Z,15.18
2019-03-28T22:22:11.859Z,15.32
2019-03-28T22:24:41.971Z,16.20
2019-03-28T22:27:14.043Z,12.55
2019-03-28T22:29:44.130Z,13.60
2019-03-28T22:32:14.203Z,11.88
2019-03-28T22:34:44.300Z,13.78
2019-03-28T22:37:15.347Z,16.57
2019-03-28T22:39:45.603Z,11.20
2019-03-28T22:42:24.355Z,17.35
2019-03-28T22:45:00.695Z,17.20
2019-03-28T22:47:34.824Z,17.40
2019-03-28T22:50:14.695Z,22.30
2019-03-28T22:52:47.351Z,25.37
2019-03-28T22:55:18.073Z,23.45
2019-03-28T22:57:48.643Z,28.85
2019-03-28T23:00:46.357Z,21.60
2019-03-28T23:03:17.771Z,16.60
2019-03-28T23:05:53.316Z,16.52
2019-03-28T23:08:25.447Z,16.77
2019-03-28T23:11:26.749Z,20.10
2019-03-28T23:14:05.885Z,20.75
2019-03-28T23:16:56.309Z,16.23
2019-03-28T23:19:35.692Z,18.95
2019-03-28T23:22:11.278Z,16.93
2019-03-28T23:24:44.516Z,17.55
2019-03-28T23:27:26.997Z,19.02
2019-03-28T23:29:59.847Z,13.88
2019-03-28T23:32:29.947Z,12.37
2019-03-28T23:35:00.053Z,15.13
2019-03-28T23:37:30.140Z,12.28
2019-03-28T23:40:00.350Z,14.50
2019-03-28T23:42:31.276Z,14.03
2019-03-28T23:45:13.145Z,15.58
2019-03-28T23:47:43.691Z,12.78
2019-03-28T23:50:17.752Z,13.85
2019-03-28T23:52:53.591Z,10.50
2019-03-28T23:55:32.347Z,18.12
2019-03-28T23:58:08.707Z,13.20
